Time;durP1;ratioP1;P1;durP2;ratioP2;P2;SDS_P1;SDS_P2;PMS_P1;PMS_P2;Temp;Humidity;BMP_temperature;BMP_pressure;BME280_temperature;BME280_humidity;BME280_pressure;Samples;Min_cycle;Max_cycle;Signal;HPM_P1;HPM_P2
2022/05/25 00:01:22;;;;;;;17.60;9.50;;;27.50;99.90;;;;;;1895171;74;21072;-78
2022/05/25 00:03:53;;;;;;;18.60;10.28;;;27.50;99.90;;;;;;1908117;74;21235;-77
2022/05/25 00:06:24;;;;;;;17.10;10.20;;;27.40;99.90;;;;;;1906097;74;21140;-78
2022/05/25 00:08:55;;;;;;;19.12;10.35;;;27.40;99.90;;;;;;1905426;74;21189;-78
2022/05/25 00:11:30;;;;;;;19.40;10.32;;;27.40;99.90;;;;;;1906446;74;21154;-79
2022/05/25 00:14:02;;;;;;;20.00;10.43;;;27.40;99.90;;;;;;1905977;74;21133;-79
2022/05/25 00:16:33;;;;;;;21.95;10.30;;;27.40;99.90;;;;;;1908400;74;21147;-78
2022/05/25 00:21:37;;;;;;;13.40;9.93;;;27.40;99.90;;;;;;1906412;74;21150;-78
2022/05/25 00:24:08;;;;;;;17.70;10.32;;;27.50;99.90;;;;;;1888997;74;21611;-79
2022/05/25 00:26:39;;;;;;;20.23;10.30;;;27.40;99.90;;;;;;1907893;74;21148;-79
2022/05/25 00:29:10;;;;;;;21.12;10.28;;;27.50;99.90;;;;;;1892602;74;21552;-77
2022/05/25 00:31:41;;;;;;;18.87;10.08;;;27.40;99.90;;;;;;1901846;74;21631;-77
2022/05/25 00:34:12;;;;;;;17.40;10.18;;;27.40;99.90;;;;;;1895177;74;21920;-77
2022/05/25 00:36:43;;;;;;;19.07;10.48;;;27.60;99.90;;;;;;1919090;74;21578;-77
2022/05/25 00:39:17;;;;;;;15.63;9.98;;;27.40;99.90;;;;;;1895796;74;21567;-77
2022/05/25 00:41:49;;;;;;;15.68;9.93;;;27.50;99.90;;;;;;1880681;74;21217;-77
2022/05/25 00:44:20;;;;;;;16.17;9.60;;;27.60;99.90;;;;;;1895647;75;21567;-76
2022/05/25 00:46:55;;;;;;;18.60;9.50;;;27.50;99.90;;;;;;1899569;74;21178;-76
2022/05/25 00:49:28;;;;;;;20.43;10.23;;;27.60;99.90;;;;;;1898573;74;21115;-77
2022/05/25 00:52:01;;;;;;;18.90;9.75;;;27.70;99.90;;;;;;1827147;77;21618;-76
2022/05/25 00:54:35;;;;;;;20.12;9.65;;;27.80;99.90;;;;;;1821254;77;21125;-77
2022/05/25 00:57:08;;;;;;;19.85;9.60;;;27.90;99.90;;;;;;1820268;77;21261;-76
2022/05/25 00:59:42;;;;;;;16.57;9.30;;;27.70;99.90;;;;;;1803105;78;21728;-77
2022/05/25 01:02:13;;;;;;;16.32;8.83;;;27.80;99.90;;;;;;1815542;77;21163;-78
2022/05/25 01:04:47;;;;;;;17.25;8.85;;;27.90;99.90;;;;;;1815849;78;21175;-80
2022/05/25 01:07:20;;;;;;;16.02;7.62;;;28.10;99.90;;;;;;1797796;79;22315;-78
2022/05/25 01:09:52;;;;;;;19.52;8.85;;;28.00;99.90;;;;;;1805937;78;21151;-79
2022/05/25 01:12:26;;;;;;;16.48;7.83;;;28.10;99.90;;;;;;1786506;79;21550;-79
2022/05/25 01:15:01;;;;;;;17.30;8.53;;;28.20;99.90;;;;;;1787645;78;21175;-78
2022/05/25 01:17:33;;;;;;;15.15;8.30;;;28.30;99.90;;;;;;1813519;78;21669;-77
2022/05/25 01:20:06;;;;;;;14.50;8.10;;;28.40;99.90;;;;;;1811072;78;21624;-78
2022/05/25 01:22:40;;;;;;;14.45;8.40;;;28.40;99.90;;;;;;1825134;77;21660;-76
2022/05/25 01:25:13;;;;;;;18.17;8.50;;;28.50;99.90;;;;;;1773775;79;21190;-77
2022/05/25 01:27:46;;;;;;;18.77;8.20;;;28.70;99.90;;;;;;1816059;78;21079;-76
2022/05/25 01:30:18;;;;;;;19.02;8.85;;;28.70;99.90;;;;;;1812539;79;21161;-76
2022/05/25 01:32:51;;;;;;;15.18;8.65;;;29.00;99.90;;;;;;1872031;75;21074;-75
2022/05/25 01:35:24;;;;;;;18.60;8.15;;;29.10;99.90;;;;;;1864258;76;21186;-76
2022/05/25 01:37:58;;;;;;;15.18;8.53;;;29.20;99.90;;;;;;1878997;75;21590;-75
2022/05/25 01:40:34;;;;;;;16.23;8.03;;;29.20;99.90;;;;;;1888070;75;21534;-76
2022/05/25 01:43:07;;;;;;;15.23;7.55;;;29.40;99.90;;;;;;1883540;75;21622;-77
2022/05/25 01:45:41;;;;;;;11.80;7.08;;;29.50;99.90;;;;;;1884059;75;21187;-76
2022/05/25 01:48:14;;;;;;;14.20;7.20;;;29.70;99.70;;;;;;1891714;75;21606;-76
2022/05/25 01:50:47;;;;;;;15.15;7.75;;;29.60;99.00;;;;;;1878853;75;21205;-77
2022/05/25 01:53:20;;;;;;;13.53;7.95;;;29.80;99.10;;;;;;1850902;75;21650;-77
2022/05/25 01:55:53;;;;;;;14.83;8.58;;;29.80;99.20;;;;;;1828606;77;21125;-77
2022/05/25 01:58:27;;;;;;;20.17;9.53;;;29.90;99.30;;;;;;1888699;75;21645;-77
2022/05/25 02:01:00;;;;;;;20.72;8.55;;;29.90;99.10;;;;;;1904908;75;21196;-77
2022/05/25 02:06:03;;;;;;;15.15;7.08;;;30.00;98.30;;;;;;1906480;74;21389;-77
2022/05/25 02:08:37;;;;;;;14.07;7.87;;;30.30;98.30;;;;;;1903230;74;21068;-78
2022/05/25 02:11:08;;;;;;;21.80;7.85;;;30.20;98.00;;;;;;1910901;74;21193;-78
2022/05/25 02:13:44;;;;;;;16.35;6.78;;;30.30;97.70;;;;;;1875332;74;21198;-78
2022/05/25 02:16:18;;;;;;;12.03;5.80;;;30.30;96.50;;;;;;1881022;74;21131;-77
2022/05/25 02:18:50;;;;;;;12.78;6.28;;;30.30;96.80;;;;;;1893094;74;21132;-76
2022/05/25 02:21:23;;;;;;;14.03;7.15;;;30.50;97.00;;;;;;1897789;74;21490;-77
2022/05/25 02:23:57;;;;;;;12.93;7.03;;;30.60;96.70;;;;;;1902680;74;21150;-76
2022/05/25 02:26:30;;;;;;;12.65;7.08;;;30.60;96.60;;;;;;1903250;74;21230;-77
2022/05/25 02:29:02;;;;;;;18.10;7.20;;;30.80;96.20;;;;;;1916522;74;21093;-76
2022/05/25 02:31:36;;;;;;;12.33;6.97;;;30.80;96.00;;;;;;1915898;74;22256;-77
2022/05/25 02:34:09;;;;;;;17.02;7.00;;;31.00;96.30;;;;;;1897393;74;21187;-75
2022/05/25 02:36:41;;;;;;;15.20;7.22;;;31.10;95.70;;;;;;1911838;74;21534;-76
2022/05/25 02:39:13;;;;;;;13.35;6.60;;;30.90;95.70;;;;;;1906253;73;21126;-76
2022/05/25 02:41:46;;;;;;;15.78;6.95;;;31.20;95.60;;;;;;1905887;74;21647;-78
2022/05/25 02:44:18;;;;;;;12.63;6.40;;;31.00;95.10;;;;;;1890168;74;21598;-78
2022/05/25 02:46:50;;;;;;;13.48;6.30;;;31.10;94.80;;;;;;1870697;74;21741;-75
2022/05/25 02:49:24;;;;;;;16.23;6.87;;;31.20;95.00;;;;;;1872811;74;21230;-76
2022/05/25 02:51:55;;;;;;;13.78;7.50;;;31.30;95.00;;;;;;1892257;74;21668;-76
2022/05/25 02:54:26;;;;;;;13.25;6.85;;;31.20;94.60;;;;;;1851017;76;21787;-78
2022/05/25 02:57:07;;;;;;;12.58;7.03;;;31.30;94.80;;;;;;1893120;74;21209;-78
2022/05/25 02:59:38;;;;;;;10.45;6.37;;;31.30;95.20;;;;;;1851005;76;21157;-77
2022/05/25 03:02:09;;;;;;;17.00;6.65;;;31.50;94.60;;;;;;1816732;77;21161;-79
2022/05/25 03:04:41;;;;;;;12.80;6.92;;;31.50;94.30;;;;;;1909059;74;21492;-77
2022/05/25 03:07:12;;;;;;;13.83;6.60;;;31.60;93.90;;;;;;1856646;76;21617;-79
2022/05/25 03:09:43;;;;;;;12.75;6.67;;;31.90;93.70;;;;;;1856558;76;21716;-77
2022/05/25 03:12:14;;;;;;;14.53;6.47;;;31.90;93.40;;;;;;1852534;76;21221;-78
2022/05/25 03:14:50;;;;;;;12.23;6.65;;;31.90;93.60;;;;;;1868976;76;21610;-78
2022/05/25 03:17:17;;;;;;;11.97;6.00;;;32.00;93.50;;;;;;1838190;77;21135;-77
2022/05/25 03:19:50;;;;;;;11.73;7.05;;;31.90;93.70;;;;;;1846599;76;21216;-77
2022/05/25 03:22:23;;;;;;;11.93;6.12;;;32.10;93.70;;;;;;1843773;77;21198;-78
2022/05/25 03:24:54;;;;;;;18.10;6.72;;;32.20;93.20;;;;;;1849645;76;21112;-77
2022/05/25 03:27:25;;;;;;;14.20;6.37;;;32.30;92.60;;;;;;1840889;77;21156;-76
2022/05/25 03:29:56;;;;;;;15.30;6.30;;;32.30;91.90;;;;;;1841173;76;21288;-77
2022/05/25 03:32:28;;;;;;;14.35;6.28;;;32.30;91.80;;;;;;1840999;76;21162;-77
2022/05/25 03:35:00;;;;;;;10.58;6.37;;;32.30;91.80;;;;;;1844251;76;21159;-78
2022/05/25 03:37:32;;;;;;;13.18;6.40;;;32.50;91.20;;;;;;1852298;76;21168;-78
2022/05/25 03:40:06;;;;;;;12.43;6.35;;;32.40;91.50;;;;;;1859103;76;21130;-78
2022/05/25 03:42:40;;;;;;;14.70;6.62;;;32.50;91.00;;;;;;1852786;76;21653;-80
2022/05/25 03:45:15;;;;;;;11.57;5.70;;;32.50;90.90;;;;;;1904190;74;21149;-77
2022/05/25 03:47:47;;;;;;;12.95;6.08;;;32.70;91.50;;;;;;1851573;76;21102;-77
2022/05/25 03:50:19;;;;;;;13.83;5.75;;;32.90;90.20;;;;;;1848432;76;21176;-78
2022/05/25 03:52:50;;;;;;;13.55;5.75;;;32.60;90.20;;;;;;1823778;76;21656;-79
2022/05/25 03:55:22;;;;;;;12.10;6.53;;;32.50;90.30;;;;;;1853181;76;21690;-79
2022/05/25 03:57:53;;;;;;;15.23;7.40;;;32.60;90.40;;;;;;1844411;76;21159;-78
2022/05/25 04:00:24;;;;;;;18.90;6.67;;;32.50;90.80;;;;;;1848727;76;21277;-78
2022/05/25 04:02:57;;;;;;;15.60;6.58;;;32.30;91.20;;;;;;1845699;76;21099;-78
2022/05/25 04:05:28;;;;;;;13.35;6.97;;;32.30;91.40;;;;;;1850551;76;21665;-78
2022/05/25 04:08:01;;;;;;;14.40;6.53;;;32.50;91.40;;;;;;1854129;76;21235;-79
2022/05/25 04:10:33;;;;;;;13.98;7.20;;;32.70;90.90;;;;;;1857312;76;21158;-78
2022/05/25 04:13:04;;;;;;;15.08;7.17;;;32.70;90.20;;;;;;1868628;76;21543;-80
2022/05/25 04:15:36;;;;;;;16.67;7.15;;;32.80;90.40;;;;;;1854053;76;21209;-78
2022/05/25 04:18:07;;;;;;;11.83;6.30;;;33.00;90.10;;;;;;1856097;76;21182;-76
2022/05/25 04:20:38;;;;;;;14.75;6.60;;;32.90;87.30;;;;;;1864001;76;21099;-77
2022/05/25 04:23:11;;;;;;;15.30;7.00;;;33.10;87.40;;;;;;1852970;77;21262;-76
2022/05/25 04:25:43;;;;;;;18.60;6.97;;;33.30;86.30;;;;;;1860038;76;21124;-76
2022/05/25 04:28:14;;;;;;;12.78;6.62;;;33.30;86.00;;;;;;1853078;76;21158;-78
2022/05/25 04:30:45;;;;;;;14.98;7.00;;;33.40;86.60;;;;;;1857077;76;21152;-80
2022/05/25 04:33:16;;;;;;;14.35;6.92;;;33.30;85.80;;;;;;1816341;78;21200;-78
2022/05/25 04:35:47;;;;;;;12.45;6.25;;;33.50;85.90;;;;;;1865804;76;21142;-77
2022/05/25 04:38:18;;;;;;;15.32;7.67;;;33.50;85.10;;;;;;1809615;78;21620;-77
2022/05/25 04:40:51;;;;;;;16.97;8.00;;;33.40;84.60;;;;;;1840597;76;21154;-76
2022/05/25 04:43:25;;;;;;;14.15;6.58;;;33.70;85.00;;;;;;1856839;76;21150;-78
2022/05/25 04:45:59;;;;;;;20.80;6.35;;;33.60;83.60;;;;;;1873709;75;21555;-82
2022/05/25 04:48:29;;;;;;;10.90;6.25;;;33.50;83.90;;;;;;1884957;76;21182;-87
2022/05/25 04:51:00;;;;;;;13.53;6.92;;;33.60;83.50;;;;;;1883186;76;21236;-89
2022/05/25 04:53:31;;;;;;;15.75;6.65;;;33.60;83.20;;;;;;1827670;77;21694;-86
2022/05/25 04:58:39;;;;;;;18.17;6.85;;;33.80;82.10;;;;;;1908816;74;21170;-87
2022/05/25 05:01:17;;;;;;;18.98;6.65;;;33.90;81.70;;;;;;1911673;74;21154;-87
2022/05/25 05:03:49;;;;;;;11.40;6.35;;;33.70;81.80;;;;;;1873200;75;21154;-87
2022/05/25 05:06:23;;;;;;;18.90;6.58;;;33.60;82.20;;;;;;1927328;74;21164;-87
2022/05/25 05:08:54;;;;;;;15.85;6.70;;;33.50;81.60;;;;;;1915932;73;21148;-87
2022/05/25 05:11:27;;;;;;;16.25;7.15;;;33.40;81.60;;;;;;1831807;77;21093;-87
2022/05/25 05:13:57;;;;;;;13.62;6.65;;;33.20;83.20;;;;;;1846295;76;21176;-87
2022/05/25 05:16:28;;;;;;;14.07;6.28;;;33.10;82.60;;;;;;1921593;73;21641;-87
2022/05/25 05:18:59;;;;;;;17.20;7.03;;;33.30;84.30;;;;;;1922246;74;21843;-86
2022/05/25 05:21:32;;;;;;;17.52;6.95;;;33.00;84.40;;;;;;1921913;74;21192;-87
2022/05/25 05:24:06;;;;;;;14.65;6.05;;;33.30;84.60;;;;;;1918362;74;21084;-87
2022/05/25 05:26:37;;;;;;;16.87;7.78;;;33.30;83.70;;;;;;1894771;74;21155;-88
2022/05/25 05:29:08;;;;;;;19.25;7.72;;;33.40;83.00;;;;;;1920723;74;21155;-87
2022/05/25 05:31:39;;;;;;;16.52;7.60;;;33.60;83.00;;;;;;1921740;74;21741;-88
2022/05/25 05:34:11;;;;;;;16.07;6.60;;;33.80;82.70;;;;;;1913421;74;21089;-88
2022/05/25 05:36:50;;;;;;;11.68;5.90;;;33.90;82.50;;;;;;1915285;74;21177;-87
2022/05/25 05:39:24;;;;;;;15.78;7.05;;;34.00;82.40;;;;;;1897911;74;21195;-88
2022/05/25 05:41:57;;;;;;;13.48;6.50;;;33.90;82.20;;;;;;1933516;74;21172;-88
2022/05/25 05:44:31;;;;;;;12.75;6.45;;;33.70;82.90;;;;;;1921915;73;21132;-86
2022/05/25 05:47:05;;;;;;;13.25;6.10;;;33.80;83.00;;;;;;1927429;74;21103;-87
2022/05/25 05:49:39;;;;;;;10.68;5.95;;;33.70;83.40;;;;;;1923257;73;21183;-86
2022/05/25 05:52:11;;;;;;;15.70;6.47;;;33.60;83.80;;;;;;1922325;74;21576;-87
2022/05/25 05:54:44;;;;;;;15.55;7.15;;;33.50;84.70;;;;;;1915988;74;21539;-86
2022/05/25 05:57:15;;;;;;;15.50;7.50;;;33.30;83.40;;;;;;1899359;75;21155;-87
2022/05/25 05:59:46;;;;;;;12.35;6.05;;;33.20;83.40;;;;;;1898468;75;21163;-85
2022/05/25 06:02:18;;;;;;;20.60;7.35;;;33.20;83.80;;;;;;1879958;75;21080;-86
2022/05/25 06:04:49;;;;;;;15.55;6.95;;;33.00;84.70;;;;;;1887661;75;21650;-87
2022/05/25 06:07:20;;;;;;;14.55;6.78;;;33.00;84.80;;;;;;1832650;75;21070;-88
2022/05/25 06:09:56;;;;;;;14.87;6.37;;;33.10;84.80;;;;;;1819385;76;21162;-85
2022/05/25 06:12:28;;;;;;;17.75;7.03;;;33.10;84.50;;;;;;1819777;76;21095;-86
2022/05/25 06:14:59;;;;;;;14.28;6.90;;;33.20;84.90;;;;;;1811435;75;21887;-86
2022/05/25 06:20:02;;;;;;;16.05;7.40;;;33.00;84.60;;;;;;1849305;77;21199;-85
2022/05/25 06:22:34;;;;;;;17.75;7.45;;;33.10;84.90;;;;;;1821088;77;21630;-86
2022/05/25 06:25:05;;;;;;;14.40;6.58;;;33.10;84.10;;;;;;1829332;77;21127;-85
2022/05/25 06:27:36;;;;;;;11.45;6.65;;;33.10;84.30;;;;;;1813991;78;21225;-85
2022/05/25 06:30:08;;;;;;;16.55;7.28;;;33.00;85.10;;;;;;1828711;77;21238;-86
2022/05/25 06:32:39;;;;;;;14.68;7.12;;;33.00;85.40;;;;;;1834964;77;21151;-86
2022/05/25 06:35:10;;;;;;;12.50;6.90;;;33.00;84.90;;;;;;1833097;77;21088;-87
2022/05/25 06:37:41;;;;;;;15.80;7.60;;;32.90;85.10;;;;;;1835071;77;21261;-87
2022/05/25 06:40:12;;;;;;;15.03;7.22;;;32.90;85.00;;;;;;1829965;77;21213;-86
2022/05/25 06:42:44;;;;;;;15.35;6.87;;;33.10;84.90;;;;;;1821381;78;21131;-84
2022/05/25 06:45:15;;;;;;;15.08;6.15;;;33.20;84.60;;;;;;1833626;77;21110;-86
2022/05/25 06:47:46;;;;;;;14.87;7.20;;;33.20;83.90;;;;;;1896260;75;21228;-86
2022/05/25 06:50:17;;;;;;;12.10;6.30;;;33.30;83.30;;;;;;1897463;75;21149;-86
2022/05/25 06:52:49;;;;;;;12.95;6.42;;;33.50;82.90;;;;;;1892519;75;21487;-86
2022/05/25 06:55:21;;;;;;;12.20;6.45;;;33.60;83.40;;;;;;1906689;74;21147;-86
2022/05/25 06:57:53;;;;;;;14.25;6.22;;;33.80;82.00;;;;;;1914209;74;21162;-86
2022/05/25 07:00:24;;;;;;;12.75;6.67;;;33.60;81.00;;;;;;1894208;74;21775;-86
2022/05/25 07:03:06;;;;;;;15.93;7.40;;;33.80;82.10;;;;;;1904474;74;21103;-86
2022/05/25 07:05:37;;;;;;;15.45;6.45;;;33.80;81.50;;;;;;1896543;74;21228;-86
2022/05/25 07:08:08;;;;;;;13.80;6.60;;;33.70;81.40;;;;;;1907929;74;21079;-86
2022/05/25 07:10:45;;;;;;;13.28;6.55;;;33.60;80.60;;;;;;1895546;74;21732;-87
2022/05/25 07:13:16;;;;;;;13.62;6.87;;;33.60;80.60;;;;;;1915240;74;21079;-86
2022/05/25 07:15:51;;;;;;;13.93;5.92;;;33.60;80.60;;;;;;1898395;74;21657;-86
2022/05/25 07:18:34;;;;;;;12.43;6.40;;;33.90;78.80;;;;;;1911215;74;21515;-85
2022/05/25 07:21:08;;;;;;;11.65;5.75;;;33.90;78.20;;;;;;1877058;75;21133;-87
2022/05/25 07:23:41;;;;;;;16.70;5.78;;;33.80;78.00;;;;;;1915362;74;21645;-87
2022/05/25 07:26:13;;;;;;;13.05;6.20;;;33.80;77.80;;;;;;1900706;74;21142;-87
2022/05/25 07:28:45;;;;;;;13.32;6.05;;;33.80;77.60;;;;;;1881082;74;21062;-85
2022/05/25 07:31:19;;;;;;;13.62;6.15;;;34.00;78.30;;;;;;1901183;74;21104;-87
2022/05/25 07:33:53;;;;;;;11.30;5.72;;;34.10;77.30;;;;;;1919050;74;21728;-86
2022/05/25 07:36:26;;;;;;;13.75;6.58;;;34.20;77.70;;;;;;1893785;74;21113;-87
2022/05/25 07:38:59;;;;;;;15.53;6.05;;;34.00;77.50;;;;;;1892806;74;21117;-87
2022/05/25 07:41:35;;;;;;;12.58;5.97;;;33.90;77.50;;;;;;1896683;74;21191;-87
2022/05/25 07:44:06;;;;;;;13.05;7.05;;;33.90;77.10;;;;;;1915606;73;21590;-87
2022/05/25 07:46:37;;;;;;;14.95;6.70;;;33.80;77.20;;;;;;1914135;74;21072;-87
2022/05/25 07:49:08;;;;;;;12.85;6.65;;;33.80;78.30;;;;;;1908964;74;21522;-86
2022/05/25 07:51:39;;;;;;;18.62;6.87;;;33.60;79.30;;;;;;1914260;74;21175;-87
2022/05/25 07:54:11;;;;;;;15.35;6.55;;;33.60;79.10;;;;;;1913708;74;21064;-87
2022/05/25 07:56:42;;;;;;;14.30;6.37;;;33.60;80.10;;;;;;1888791;74;21145;-85
2022/05/25 07:59:15;;;;;;;14.25;7.05;;;33.60;80.30;;;;;;1887799;75;21110;-88
2022/05/25 08:06:56;;;;;;;14.07;6.58;;;33.50;81.20;;;;;;1895917;75;21161;-86
2022/05/25 08:09:30;;;;;;;14.93;6.83;;;33.60;82.30;;;;;;1910023;75;21147;-87
2022/05/25 08:12:02;;;;;;;14.25;5.97;;;33.50;82.80;;;;;;1874798;75;21071;-88
2022/05/25 08:14:37;;;;;;;13.62;6.37;;;33.50;82.50;;;;;;1885289;75;21094;-86
2022/05/25 08:17:13;;;;;;;13.95;6.00;;;33.50;83.20;;;;;;1871943;75;21102;-86
2022/05/25 08:19:41;;;;;;;13.70;6.08;;;33.30;82.80;;;;;;1907466;75;21669;-86
2022/05/25 08:22:17;;;;;;;11.65;5.50;;;33.10;83.50;;;;;;1890769;75;21142;-87
2022/05/25 08:24:48;;;;;;;12.23;6.12;;;33.10;82.20;;;;;;1867158;75;21098;-85
2022/05/25 08:27:19;;;;;;;14.20;5.42;;;33.30;82.90;;;;;;1895128;75;21059;-85
2022/05/25 08:29:54;;;;;;;14.38;5.67;;;33.10;83.70;;;;;;1883619;75;21153;-86
2022/05/25 08:32:38;;;;;;;10.05;5.78;;;33.30;83.70;;;;;;1872128;75;21126;-87
2022/05/25 08:35:14;;;;;;;11.30;5.87;;;33.20;82.70;;;;;;1884103;75;21082;-87
2022/05/25 08:37:51;;;;;;;13.72;5.97;;;33.10;81.50;;;;;;1893547;75;21589;-87
2022/05/25 08:40:25;;;;;;;12.93;5.22;;;33.10;81.90;;;;;;1877393;75;21082;-87
2022/05/25 08:43:04;;;;;;;12.75;6.15;;;33.20;81.10;;;;;;1877872;75;21228;-84
2022/05/25 08:45:37;;;;;;;11.68;6.35;;;33.40;82.60;;;;;;1879845;75;21114;-87
2022/05/25 08:48:13;;;;;;;11.38;5.97;;;33.20;84.30;;;;;;1878144;76;21142;-87
2022/05/25 08:50:47;;;;;;;12.82;6.80;;;33.30;83.80;;;;;;1882903;76;21083;-85
2022/05/25 08:53:20;;;;;;;16.62;6.30;;;33.10;84.90;;;;;;1886826;75;21111;-85
2022/05/25 08:55:54;;;;;;;10.98;5.80;;;32.80;86.80;;;;;;1890450;74;21059;-86
2022/05/25 08:58:27;;;;;;;10.28;6.00;;;32.50;87.30;;;;;;1895831;74;21157;-86
2022/05/25 09:01:01;;;;;;;9.58;4.92;;;32.20;87.80;;;;;;1886996;75;21127;-86
2022/05/25 09:03:35;;;;;;;8.88;4.50;;;31.90;88.30;;;;;;1886041;75;21044;-88
2022/05/25 09:06:33;;;;;;;8.70;3.50;;;31.90;88.50;;;;;;1885700;75;21173;-86
2022/05/25 09:09:01;;;;;;;7.50;3.72;;;31.60;90.20;;;;;;1920749;73;21143;-86
2022/05/25 09:11:38;;;;;;;5.20;3.10;;;31.60;90.70;;;;;;1910417;73;21208;-86
2022/05/25 09:14:12;;;;;;;8.83;3.30;;;31.20;91.20;;;;;;1931335;73;21111;-86
2022/05/25 09:16:45;;;;;;;7.17;3.15;;;31.00;91.50;;;;;;1930572;73;21075;-87
2022/05/25 09:19:18;;;;;;;6.92;3.15;;;30.70;92.30;;;;;;1924123;73;21157;-87
2022/05/25 09:21:51;;;;;;;5.60;3.10;;;30.80;92.40;;;;;;1921888;73;21130;-85
2022/05/25 09:24:25;;;;;;;6.35;3.20;;;30.60;92.80;;;;;;1921431;73;21136;-87
2022/05/25 09:26:56;;;;;;;7.72;4.12;;;30.30;92.90;;;;;;1922308;73;21118;-87
2022/05/25 09:29:27;;;;;;;10.82;4.50;;;30.50;93.20;;;;;;1927235;73;21123;-87
2022/05/25 09:32:00;;;;;;;9.73;5.62;;;30.20;93.20;;;;;;1928591;73;21210;-88
2022/05/25 09:34:33;;;;;;;10.40;5.22;;;30.30;93.30;;;;;;1924912;73;21092;-87
2022/05/25 09:37:10;;;;;;;8.48;5.40;;;30.40;92.80;;;;;;1921414;73;21151;-86
2022/05/25 09:39:42;;;;;;;10.70;4.97;;;30.30;92.80;;;;;;1926424;73;21586;-88
2022/05/25 09:42:15;;;;;;;9.40;4.67;;;30.30;92.40;;;;;;1928608;73;21119;-87
2022/05/25 09:44:52;;;;;;;;;;;30.40;92.20;;;;;;1929977;73;21673;-85
2022/05/25 09:47:24;;;;;;;8.70;4.50;;;30.40;92.30;;;;;;1927748;73;20197;-88
2022/05/25 09:49:59;;;;;;;16.30;5.85;;;30.30;91.80;;;;;;1891590;74;21208;-88
2022/05/25 09:52:33;;;;;;;17.85;6.92;;;30.40;92.60;;;;;;1857914;75;21171;-89
2022/05/25 09:55:11;;;;;;;15.08;6.87;;;30.60;94.10;;;;;;1892764;74;21222;-87
2022/05/25 09:57:41;;;;;;;14.25;6.42;;;30.40;94.60;;;;;;1895035;74;21134;-90
2022/05/25 10:00:15;;;;;;;14.18;6.67;;;30.20;95.10;;;;;;1897526;74;21051;-93
2022/05/25 10:02:50;;;;;;;13.98;7.40;;;30.40;96.50;;;;;;1872974;75;21119;-92
2022/05/25 10:05:23;;;;;;;16.02;7.83;;;29.90;96.90;;;;;;1891466;74;21622;-90
2022/05/25 10:08:00;;;;;;;19.85;8.73;;;29.70;98.40;;;;;;1838240;76;21168;-90
2022/05/25 10:10:32;;;;;;;19.65;9.05;;;29.20;99.90;;;;;;1860455;74;21577;-86
2022/05/25 10:13:10;;;;;;;14.15;8.53;;;28.40;99.90;;;;;;1848231;76;21079;-88
2022/05/25 10:15:51;;;;;;;14.70;7.20;;;28.10;99.90;;;;;;1893077;74;21153;-87
2022/05/25 10:18:18;;;;;;;11.55;6.00;;;27.80;99.90;;;;;;1856120;74;21230;-84
2022/05/25 10:20:50;;;;;;;13.05;5.45;;;27.90;99.90;;;;;;1894920;74;21070;-87
2022/05/25 10:23:23;;;;;;;12.23;5.00;;;27.60;99.90;;;;;;1840058;76;21629;-85
2022/05/25 10:25:55;;;;;;;13.00;4.97;;;27.40;99.90;;;;;;1916486;73;21196;-84
2022/05/25 10:28:28;;;;;;;9.90;4.62;;;27.60;99.90;;;;;;1893200;74;21179;-85
2022/05/25 10:38:42;;;;;;;16.57;6.70;;;27.70;99.90;;;;;;1885680;74;21131;-86
2022/05/25 10:43:47;;;;;;;11.53;7.47;;;28.00;99.90;;;;;;1889655;74;21560;-86
2022/05/25 10:46:19;;;;;;;14.55;7.80;;;28.10;99.90;;;;;;1888750;74;21134;-85
2022/05/25 10:48:52;;;;;;;15.15;7.25;;;28.00;99.90;;;;;;1889681;74;21143;-86
2022/05/25 10:51:27;;;;;;;16.87;7.00;;;28.10;99.90;;;;;;1854159;75;21605;-86
2022/05/25 10:56:35;;;;;;;13.83;7.60;;;28.10;99.90;;;;;;1889235;74;21216;-86
2022/05/25 10:59:08;;;;;;;14.13;7.87;;;28.20;99.90;;;;;;1847504;76;21198;-88
2022/05/25 11:01:43;;;;;;;12.98;8.10;;;28.20;99.90;;;;;;1913626;74;21152;-87
2022/05/25 11:04:15;;;;;;;13.90;8.28;;;28.10;99.90;;;;;;1904179;74;21643;-86
2022/05/25 11:06:47;;;;;;;15.03;8.43;;;28.20;99.90;;;;;;1900821;74;21140;-87
2022/05/25 11:09:18;;;;;;;16.00;7.87;;;28.20;99.90;;;;;;1916314;74;21152;-86
2022/05/25 11:11:53;;;;;;;12.55;8.05;;;28.20;99.90;;;;;;1918117;75;21077;-87
2022/05/25 11:14:29;;;;;;;16.07;8.85;;;28.30;99.90;;;;;;1918579;74;21493;-86
2022/05/25 11:17:02;;;;;;;15.50;8.40;;;28.30;99.90;;;;;;1918113;73;21195;-85
2022/05/25 11:19:35;;;;;;;17.65;9.83;;;28.30;99.90;;;;;;1916871;74;21035;-86
2022/05/25 11:22:09;;;;;;;17.23;8.90;;;28.50;99.90;;;;;;1916281;74;21256;-86
2022/05/25 11:24:42;;;;;;;13.80;8.98;;;28.40;99.90;;;;;;1920978;73;21154;-86
2022/05/25 11:27:16;;;;;;;16.23;8.83;;;28.50;99.90;;;;;;1887794;74;21130;-86
2022/05/25 11:29:46;;;;;;;15.93;8.40;;;28.60;99.90;;;;;;1853992;76;21079;-86
2022/05/25 11:32:20;;;;;;;12.40;8.03;;;28.50;99.90;;;;;;1897069;74;21598;-85
2022/05/25 11:34:53;;;;;;;15.13;9.25;;;28.60;99.90;;;;;;1843867;76;21130;-86
2022/05/25 11:37:26;;;;;;;23.47;9.68;;;28.50;99.90;;;;;;1847776;75;21150;-86
2022/05/25 11:40:03;;;;;;;14.43;8.68;;;28.50;99.90;;;;;;1904396;74;21536;-78
2022/05/25 11:42:35;;;;;;;18.75;9.45;;;28.50;99.90;;;;;;1879404;75;21181;-79
2022/05/25 11:45:07;;;;;;;19.05;9.78;;;28.50;99.90;;;;;;1884929;75;21196;-78
2022/05/25 11:47:41;;;;;;;13.78;9.50;;;28.60;99.90;;;;;;1897967;73;21146;-77
2022/05/25 11:50:14;;;;;;;18.98;9.23;;;28.60;99.90;;;;;;1921071;73;21670;-79
2022/05/25 11:52:48;;;;;;;15.20;8.43;;;28.70;99.90;;;;;;1907302;73;21091;-78
2022/05/25 11:55:22;;;;;;;16.50;8.58;;;28.60;99.90;;;;;;1917706;73;21700;-77
2022/05/25 11:57:56;;;;;;;21.65;10.15;;;28.60;99.90;;;;;;1921991;73;21124;-77
2022/05/25 12:00:29;;;;;;;20.00;10.53;;;28.60;99.90;;;;;;1913360;73;21688;-88
2022/05/25 12:03:03;;;;;;;21.10;11.48;;;28.60;99.90;;;;;;1920248;73;21186;-86
2022/05/25 12:05:39;;;;;;;19.80;12.80;;;28.50;99.90;;;;;;1922660;73;21108;-88
2022/05/25 12:08:12;;;;;;;21.07;12.45;;;28.50;99.90;;;;;;1921078;73;21149;-88
2022/05/25 12:10:45;;;;;;;21.77;11.80;;;28.40;99.90;;;;;;1900070;73;21162;-88
2022/05/25 12:13:21;;;;;;;21.45;11.03;;;28.50;99.90;;;;;;1917455;73;21925;-88
2022/05/25 12:15:53;;;;;;;19.27;11.48;;;28.40;99.90;;;;;;1917287;74;21219;-89
2022/05/25 12:18:31;;;;;;;20.97;11.15;;;28.50;99.90;;;;;;1895408;74;21128;-87
2022/05/25 12:21:01;;;;;;;22.10;11.90;;;28.50;99.90;;;;;;1880823;74;21142;-87
2022/05/25 12:23:35;;;;;;;19.40;11.40;;;28.40;99.90;;;;;;1927174;73;21176;-89
2022/05/25 12:26:11;;;;;;;25.20;12.40;;;28.40;99.90;;;;;;1925553;73;21140;-89
2022/05/25 12:28:47;;;;;;;18.90;11.10;;;28.50;99.90;;;;;;1927193;73;21133;-88
2022/05/25 12:31:20;;;;;;;22.77;11.47;;;28.30;99.90;;;;;;1952624;73;21178;-87
2022/05/25 12:33:53;;;;;;;23.32;11.90;;;28.50;99.90;;;;;;1910047;73;21136;-88
2022/05/25 12:36:26;;;;;;;19.10;10.20;;;28.40;99.90;;;;;;1922772;73;21130;-88
2022/05/25 12:38:58;;;;;;;16.62;10.40;;;28.30;99.90;;;;;;1916239;73;21075;-89
2022/05/25 12:41:35;;;;;;;21.52;10.50;;;28.40;99.90;;;;;;1865860;75;21214;-90
2022/05/25 12:49:14;;;;;;;17.57;11.43;;;28.40;99.90;;;;;;1901855;74;21042;-89
2022/05/25 12:51:48;;;;;;;18.75;10.35;;;28.40;99.90;;;;;;1907617;73;21213;-89
2022/05/25 12:54:21;;;;;;;18.55;10.80;;;28.40;99.90;;;;;;1912661;74;21112;-88
2022/05/25 12:56:54;;;;;;;20.25;10.60;;;28.60;99.90;;;;;;1905159;73;21136;-86
2022/05/25 12:59:26;;;;;;;18.17;10.78;;;28.60;99.90;;;;;;1920916;74;21382;-87
2022/05/25 13:01:59;;;;;;;18.92;10.72;;;28.40;99.90;;;;;;1905348;73;21036;-88
2022/05/25 13:04:32;;;;;;;17.23;10.08;;;28.60;99.90;;;;;;1925885;73;21143;-87
2022/05/25 13:07:03;;;;;;;19.65;10.70;;;28.40;99.90;;;;;;1903037;74;21129;-87
2022/05/25 13:09:40;;;;;;;17.75;10.38;;;28.50;99.90;;;;;;1921379;73;21120;-89
2022/05/25 13:12:11;;;;;;;17.60;10.23;;;28.60;99.90;;;;;;1883741;73;21374;-87
2022/05/25 13:14:41;;;;;;;16.50;9.98;;;28.50;99.90;;;;;;1890366;72;21382;-85
2022/05/25 13:17:21;;;;;;;19.70;10.50;;;28.50;99.90;;;;;;1918872;72;21132;-87
2022/05/25 13:19:50;;;;;;;21.50;10.70;;;28.50;99.90;;;;;;1920948;72;21169;-90
2022/05/25 13:22:28;;;;;;;17.35;9.63;;;28.40;99.90;;;;;;1875444;74;21193;-88
2022/05/25 13:24:59;;;;;;;19.37;11.57;;;28.60;99.90;;;;;;1843465;77;21140;-89
2022/05/25 13:27:33;;;;;;;19.85;11.05;;;28.50;99.90;;;;;;1854625;76;21128;-89
2022/05/25 13:30:07;;;;;;;18.75;9.40;;;28.60;99.90;;;;;;1848896;74;21172;-88
2022/05/25 13:32:43;;;;;;;16.30;9.85;;;28.40;99.90;;;;;;1890547;74;21190;-88
2022/05/25 13:35:19;;;;;;;19.50;10.53;;;28.50;99.90;;;;;;1890536;74;21173;-88
2022/05/25 13:37:51;;;;;;;16.82;9.78;;;28.60;99.90;;;;;;1903758;74;21104;-89